Time;durP1;ratioP1;P1;durP2;ratioP2;P2;SDS_P1;SDS_P2;PMS_P1;PMS_P2;Temp;Humidity;BMP_temperature;BMP_pressure;BME280_temperature;BME280_humidity;BME280_pressure;Samples;Min_cycle;Max_cycle;Signal;HPM_P1;HPM_P2
2023/08/16 00:01:57;;;;;;;14.77;8.73;;;;;;;24.55;77.45;100462.78;4952320;28;20023;-82
2023/08/16 00:04:23;;;;;;;14.88;8.60;;;;;;;24.66;76.09;100470.31;4952568;28;20031;-82
2023/08/16 00:06:49;;;;;;;19.23;8.82;;;;;;;24.72;76.04;100461.19;4952331;28;20381;-82
2023/08/16 00:09:16;;;;;;;13.10;8.05;;;;;;;24.62;76.74;100455.31;4952069;28;20085;-82
2023/08/16 00:11:41;;;;;;;32.85;8.65;;;;;;;24.63;76.68;100443.25;4951855;28;20034;-82
2023/08/16 00:14:07;;;;;;;19.15;9.40;;;;;;;24.71;76.79;100423.72;4952102;28;20035;-82
2023/08/16 00:16:32;;;;;;;16.42;8.13;;;;;;;24.74;76.28;100404.03;4952413;28;20050;-82
2023/08/16 00:18:58;;;;;;;19.20;7.65;;;;;;;24.75;76.74;100391.97;4951865;28;20030;-83
2023/08/16 00:21:24;;;;;;;19.13;8.88;;;;;;;24.69;77.64;100384.59;4952362;28;20051;-81
2023/08/16 00:23:50;;;;;;;19.83;7.85;;;;;;;24.77;77.34;100381.56;4952554;28;20399;-83
2023/08/16 00:26:15;;;;;;;14.88;7.80;;;;;;;24.73;77.50;100413.38;4956465;28;20086;-85
2023/08/16 00:28:42;;;;;;;21.17;8.90;;;;;;;24.72;77.64;100439.19;4954589;28;20027;-82
2023/08/16 00:31:07;;;;;;;22.20;8.10;;;;;;;24.73;77.69;100446.38;4952043;28;20102;-84
2023/08/16 00:33:33;;;;;;;18.10;9.40;;;;;;;24.79;77.27;100462.00;4951784;28;20028;-82
2023/08/16 00:35:58;;;;;;;17.52;8.40;;;;;;;24.89;76.52;100445.84;4952154;28;20043;-83
2023/08/16 00:38:24;;;;;;;18.65;8.80;;;;;;;24.87;75.39;100436.16;4951676;28;20031;-83
2023/08/16 00:40:50;;;;;;;15.30;8.10;;;;;;;24.96;74.74;100433.97;4950517;28;20430;-83
2023/08/16 00:43:17;;;;;;;15.98;8.68;;;;;;;24.95;75.06;100407.53;4951798;28;20030;-82
2023/08/16 00:45:45;;;;;;;18.80;7.30;;;;;;;24.90;74.94;100398.03;4951653;28;20064;-85
2023/08/16 00:48:13;;;;;;;22.88;8.38;;;;;;;24.96;74.88;100426.56;4951454;28;20410;-85
2023/08/16 00:50:38;;;;;;;11.90;6.93;;;;;;;24.95;74.98;100443.31;4951588;29;20487;-86
2023/08/16 00:53:04;;;;;;;17.20;7.05;;;;;;;24.99;75.23;100469.28;4966156;28;20035;-83
2023/08/16 00:55:31;;;;;;;24.50;8.13;;;;;;;25.05;74.68;100505.03;4951312;28;20034;-83
2023/08/16 00:57:57;;;;;;;16.27;7.68;;;;;;;25.08;74.67;100532.09;4951472;28;20035;-83
2023/08/16 01:00:23;;;;;;;14.55;7.57;;;;;;;25.05;74.82;100537.19;4951577;28;20388;-82
2023/08/16 01:02:48;;;;;;;23.85;8.65;;;;;;;25.12;74.75;100538.00;4951436;28;20034;-83
2023/08/16 01:05:15;;;;;;;14.07;7.63;;;;;;;25.17;74.55;100546.44;4951479;28;20043;-82
2023/08/16 01:07:41;;;;;;;15.43;6.90;;;;;;;25.17;74.52;100569.31;4951328;28;20023;-82
2023/08/16 01:10:08;;;;;;;18.40;8.38;;;;;;;25.21;74.32;100589.84;4951282;28;20434;-82
2023/08/16 01:12:55;;;;;;;18.90;7.90;;;;;;;25.24;74.12;100592.16;4951428;28;20035;-82
2023/08/16 01:15:33;;;;;;;12.70;6.55;;;;;;;25.32;74.18;100577.25;4951362;28;20549;-82
2023/08/16 01:18:02;;;;;;;17.23;7.93;;;;;;;25.26;74.65;100598.25;4951205;28;20065;-82
2023/08/16 01:20:30;;;;;;;16.50;7.85;;;;;;;25.31;75.76;100609.47;4951258;28;20047;-82
2023/08/16 01:23:05;;;;;;;23.95;7.40;;;;;;;25.30;74.83;100596.78;4951097;28;20028;-82
2023/08/16 01:25:31;;;;;;;20.35;8.02;;;;;;;25.30;75.25;100601.44;4965902;28;20384;-83
2023/08/16 01:27:59;;;;;;;18.38;8.02;;;;;;;25.29;75.50;100610.75;4951110;28;20172;-83
2023/08/16 01:30:25;;;;;;;17.35;8.25;;;;;;;25.35;75.52;100609.88;4950939;28;20109;-83
2023/08/16 01:32:50;;;;;;;19.60;7.57;;;;;;;25.26;75.43;100616.69;4950815;28;20106;-83
2023/08/16 01:35:16;;;;;;;16.23;8.93;;;;;;;25.33;75.74;100612.84;4951082;28;20400;-83
2023/08/16 01:37:43;;;;;;;17.38;7.45;;;;;;;25.34;75.15;100617.31;4951034;28;20086;-83
2023/08/16 01:40:09;;;;;;;17.10;7.50;;;;;;;25.36;74.96;100623.41;4951581;28;20041;-83
2023/08/16 01:42:48;;;;;;;24.83;7.32;;;;;;;25.26;75.39;100633.22;4951007;28;20027;-84
2023/08/16 01:45:17;;;;;;;28.40;8.80;;;;;;;25.35;75.72;100626.41;4950967;28;20094;-84
2023/08/16 01:47:43;;;;;;;18.40;8.00;;;;;;;25.37;75.30;100635.28;4951000;28;20055;-83
2023/08/16 01:50:09;;;;;;;18.20;7.72;;;;;;;25.34;75.28;100628.31;4950869;28;20114;-83
2023/08/16 01:52:35;;;;;;;18.58;8.02;;;;;;;25.34;75.73;100624.72;4953629;28;20468;-83
2023/08/16 01:55:01;;;;;;;18.90;8.05;;;;;;;25.33;75.58;100629.38;4955010;28;20030;-83
2023/08/16 01:57:26;;;;;;;25.60;8.13;;;;;;;25.32;76.18;100621.31;4954821;28;20027;-83
2023/08/16 01:59:52;;;;;;;17.45;7.88;;;;;;;25.26;76.74;100617.53;4954916;28;20035;-83
2023/08/16 02:02:17;;;;;;;21.13;8.20;;;;;;;25.26;76.54;100613.94;4954985;28;20019;-83
2023/08/16 02:04:43;;;;;;;24.35;8.38;;;;;;;25.31;76.60;100617.75;4954852;29;20031;-84
2023/08/16 02:07:08;;;;;;;23.88;7.22;;;;;;;25.33;76.52;100617.50;4956369;28;20505;-83
2023/08/16 02:09:34;;;;;;;13.18;6.78;;;;;;;25.24;77.64;100619.69;4959980;28;20035;-83
2023/08/16 02:11:59;;;;;;;29.77;7.35;;;;;;;25.19;78.14;100613.16;4967012;28;20038;-82
2023/08/16 02:14:24;;;;;;;27.45;8.75;;;;;;;25.16;78.65;100621.84;4964958;29;20447;-83
2023/08/16 02:16:50;;;;;;;16.40;7.43;;;;;;;25.17;78.77;100615.25;4958379;28;20041;-83
2023/08/16 02:19:15;;;;;;;11.65;6.53;;;;;;;25.08;79.72;100611.06;4957878;28;20030;-83
2023/08/16 02:21:41;;;;;;;26.10;7.97;;;;;;;25.06;79.99;100604.97;4961406;29;20420;-84
2023/08/16 02:24:07;;;;;;;16.42;7.60;;;;;;;25.02;80.66;100588.03;4954416;28;20538;-83
2023/08/16 02:26:33;;;;;;;20.65;7.35;;;;;;;25.04;80.66;100591.44;4953974;28;20035;-83
2023/08/16 02:28:58;;;;;;;14.02;7.65;;;;;;;24.94;81.32;100573.69;4954164;28;20525;-84
2023/08/16 02:31:24;;;;;;;14.75;6.78;;;;;;;24.93;81.66;100578.34;4954340;29;20027;-82
2023/08/16 02:33:49;;;;;;;21.90;7.68;;;;;;;24.96;81.54;100571.53;4954249;28;20135;-84
2023/08/16 02:36:15;;;;;;;14.25;7.10;;;;;;;24.92;81.76;100577.50;4954136;28;20059;-80
2023/08/16 02:38:40;;;;;;;15.93;7.30;;;;;;;24.92;82.02;100570.31;4953810;29;20027;-80
2023/08/16 02:41:06;;;;;;;26.40;7.80;;;;;;;24.95;82.06;100576.22;4953870;28;20045;-80
2023/08/16 02:43:31;;;;;;;19.65;7.05;;;;;;;24.97;82.29;100589.75;4953793;29;20023;-80
2023/08/16 02:45:57;;;;;;;20.58;7.85;;;;;;;24.99;82.43;100585.72;4952426;29;20039;-82
2023/08/16 02:48:23;;;;;;;25.10;6.60;;;;;;;24.89;82.91;100577.94;4953824;28;20030;-82
2023/08/16 02:50:48;;;;;;;16.48;7.80;;;;;;;24.88;83.10;100570.75;4953675;28;20038;-80
2023/08/16 02:53:16;;;;;;;29.10;7.95;;;;;;;24.92;83.01;100572.00;4919632;29;20076;-80
2023/08/16 02:55:42;;;;;;;18.77;7.07;;;;;;;24.95;83.29;100583.63;4968328;28;20085;-81
2023/08/16 02:58:07;;;;;;;16.77;6.43;;;;;;;24.94;83.40;100587.44;4953443;28;20503;-80
2023/08/16 03:00:33;;;;;;;20.80;7.28;;;;;;;24.97;83.79;100600.75;4953612;28;20042;-80
2023/08/16 03:02:58;;;;;;;12.32;6.80;;;;;;;25.00;84.23;100608.59;4951473;28;20028;-81
2023/08/16 03:05:23;;;;;;;10.93;7.03;;;;;;;24.99;83.89;100584.88;4953191;28;20035;-81
2023/08/16 03:07:49;;;;;;;20.88;7.05;;;;;;;24.95;84.35;100575.38;4953293;28;20051;-81
2023/08/16 03:10:14;;;;;;;18.92;6.90;;;;;;;24.88;84.71;100565.25;4953073;28;20040;-81
2023/08/16 03:12:40;;;;;;;20.27;7.35;;;;;;;24.99;84.37;100576.63;4952207;28;20547;-81
2023/08/16 03:15:06;;;;;;;18.05;6.90;;;;;;;24.96;84.38;100602.66;4952992;29;20452;-82
2023/08/16 03:17:32;;;;;;;23.40;7.80;;;;;;;24.92;84.85;100603.34;4953145;28;20043;-81
2023/08/16 03:19:57;;;;;;;17.27;7.82;;;;;;;24.95;85.17;100605.66;4953181;28;20663;-82
2023/08/16 03:22:23;;;;;;;14.40;7.10;;;;;;;25.01;84.42;100607.53;4953090;28;20122;-81
2023/08/16 03:24:49;;;;;;;25.60;8.00;;;;;;;25.06;84.42;100615.97;4953374;28;20034;-82
2023/08/16 03:27:15;;;;;;;29.20;11.98;;;;;;;25.08;84.31;100608.31;4952883;28;20035;-82
2023/08/16 03:29:41;;;;;;;24.98;10.65;;;;;;;25.13;84.15;100616.78;4953072;28;20027;-82
2023/08/16 03:32:06;;;;;;;43.42;16.10;;;;;;;25.08;84.58;100616.56;4952839;28;20496;-82
2023/08/16 03:34:31;;;;;;;21.23;8.90;;;;;;;25.15;84.35;100623.75;4952674;29;20031;-82
2023/08/16 03:36:57;;;;;;;26.70;8.02;;;;;;;25.15;84.23;100603.63;4952826;28;20039;-83
2023/08/16 03:39:23;;;;;;;13.57;7.47;;;;;;;25.14;84.42;100608.28;4951511;29;20035;-82
2023/08/16 03:41:49;;;;;;;16.73;7.82;;;;;;;25.12;84.40;100607.69;4952736;28;20031;-81
2023/08/16 03:44:14;;;;;;;20.67;8.80;;;;;;;25.09;84.59;100599.00;4952868;29;20042;-81
2023/08/16 03:46:40;;;;;;;14.40;6.55;;;;;;;25.03;85.15;100591.63;4952656;29;20023;-81
2023/08/16 03:49:05;;;;;;;16.90;8.00;;;;;;;24.99;85.62;100584.88;4952589;29;20411;-82
2023/08/16 03:51:31;;;;;;;19.75;8.10;;;;;;;24.99;85.54;100582.97;4952697;28;20506;-81
2023/08/16 03:53:57;;;;;;;21.15;8.27;;;;;;;25.07;85.62;100596.50;4952226;28;20098;-82
2023/08/16 03:56:22;;;;;;;24.95;7.45;;;;;;;25.01;85.41;100591.88;4952382;28;20439;-83
2023/08/16 03:58:48;;;;;;;26.45;8.55;;;;;;;25.09;85.21;100588.84;4952250;28;20094;-82
2023/08/16 04:01:13;;;;;;;24.42;9.27;;;;;;;25.15;84.74;100570.59;4952426;29;20031;-81
2023/08/16 04:03:38;;;;;;;24.65;8.50;;;;;;;25.10;85.08;100565.78;4952539;28;20027;-82
2023/08/16 04:06:10;;;;;;;23.23;7.90;;;;;;;25.11;84.88;100574.84;4952275;29;20027;-81
2023/08/16 04:08:36;;;;;;;21.63;7.07;;;;;;;25.19;84.39;100577.38;4952252;28;20067;-82
2023/08/16 04:11:01;;;;;;;22.60;9.10;;;;;;;25.26;84.13;100583.66;4952117;28;20073;-82
2023/08/16 04:13:27;;;;;;;28.70;7.90;;;;;;;25.25;83.91;100582.84;4953016;28;20412;-82
2023/08/16 04:15:52;;;;;;;27.05;7.88;;;;;;;25.35;83.52;100572.16;4955081;28;20127;-82
2023/08/16 04:18:18;;;;;;;18.67;8.18;;;;;;;25.35;83.37;100585.09;4952456;28;20102;-82
2023/08/16 04:20:43;;;;;;;25.58;8.20;;;;;;;25.38;83.23;100579.16;4952390;28;20063;-82
2023/08/16 04:23:08;;;;;;;29.27;9.15;;;;;;;25.39;82.93;100589.06;4951806;29;20045;-84
2023/08/16 04:25:34;;;;;;;18.15;7.80;;;;;;;25.47;82.74;100608.13;4951945;28;20032;-83
2023/08/16 04:28:00;;;;;;;22.77;7.88;;;;;;;25.53;82.01;100634.81;4951607;28;20020;-82
2023/08/16 04:30:25;;;;;;;29.63;9.05;;;;;;;25.60;81.76;100640.22;4951989;28;20042;-82
2023/08/16 04:32:51;;;;;;;33.97;7.63;;;;;;;25.59;80.80;100628.41;4951510;28;20462;-82
2023/08/16 04:35:16;;;;;;;21.92;9.00;;;;;;;25.66;80.78;100620.06;4951584;28;20031;-82
2023/08/16 04:37:42;;;;;;;40.53;7.68;;;;;;;25.79;79.73;100650.28;4951964;28;20031;-83
2023/08/16 04:40:08;;;;;;;40.53;8.82;;;;;;;25.94;79.06;100651.66;4951909;28;20118;-83
2023/08/16 04:42:34;;;;;;;29.65;8.82;;;;;;;25.94;78.95;100651.66;4951541;28;20062;-83
2023/08/16 04:45:01;;;;;;;28.80;7.85;;;;;;;26.08;78.04;100643.28;4951766;28;20065;-82
2023/08/16 04:47:27;;;;;;;21.83;8.63;;;;;;;26.13;77.66;100624.97;4951505;28;20031;-82
2023/08/16 04:49:52;;;;;;;33.95;7.93;;;;;;;26.21;77.85;100632.13;4951444;29;20527;-82
2023/08/16 04:52:17;;;;;;;27.00;8.40;;;;;;;26.22;77.22;100618.13;4951676;28;20031;-82
2023/08/16 04:54:43;;;;;;;30.25;7.80;;;;;;;26.21;77.43;100593.53;4949950;29;20031;-81
2023/08/16 04:57:08;;;;;;;22.55;8.05;;;;;;;26.17;76.63;100564.75;4951272;28;20031;-82
2023/08/16 04:59:34;;;;;;;24.23;7.57;;;;;;;26.29;76.55;100590.50;4951625;28;20032;-82
2023/08/16 05:01:59;;;;;;;36.78;7.95;;;;;;;26.32;76.01;100601.06;4951562;28;20039;-82
2023/08/16 05:04:25;;;;;;;31.40;8.18;;;;;;;26.35;75.93;100604.22;4950739;28;20035;-82
2023/08/16 05:06:50;;;;;;;31.10;8.68;;;;;;;26.40;75.31;100609.88;4951061;29;20031;-83
2023/08/16 05:09:16;;;;;;;26.10;8.20;;;;;;;26.41;75.44;100632.81;4951150;28;20027;-82
2023/08/16 05:11:41;;;;;;;35.20;7.47;;;;;;;26.49;75.27;100657.31;4950845;28;20035;-82
2023/08/16 05:14:06;;;;;;;78.25;12.18;;;;;;;26.57;74.72;100670.84;4951274;28;20027;-84
2023/08/16 05:16:32;;;;;;;39.45;7.93;;;;;;;26.55;74.49;100656.41;4951853;28;20116;-87
2023/08/16 05:18:57;;;;;;;32.92;8.55;;;;;;;26.55;74.62;100650.88;4957355;29;20051;-87
2023/08/16 05:21:24;;;;;;;42.03;9.63;;;;;;;26.55;74.48;100620.53;4959497;28;20051;-85
2023/08/16 05:23:49;;;;;;;18.63;8.38;;;;;;;26.52;74.02;100612.72;4961388;28;20031;-84
2023/08/16 05:26:15;;;;;;;33.50;8.93;;;;;;;26.56;73.74;100600.16;4957183;28;20042;-85
2023/08/16 05:28:40;;;;;;;32.20;8.30;;;;;;;26.69;73.95;100608.31;4957966;28;20035;-84
2023/08/16 05:31:09;;;;;;;29.83;8.93;;;;;;;26.80;73.44;100609.47;4957342;28;20027;-83
2023/08/16 05:33:36;;;;;;;42.88;8.98;;;;;;;26.86;73.22;100608.53;4956742;28;20031;-86
2023/08/16 05:36:02;;;;;;;35.83;8.82;;;;;;;26.99;72.63;100603.69;4951178;28;20114;-84
2023/08/16 05:38:27;;;;;;;19.92;8.35;;;;;;;27.02;73.46;100594.94;4950966;28;20594;-84
2023/08/16 05:40:54;;;;;;;30.15;7.65;;;;;;;27.02;72.87;100592.19;4949683;28;20547;-85
2023/08/16 05:43:19;;;;;;;22.67;6.93;;;;;;;26.98;72.14;100579.06;4951282;28;20027;-85
2023/08/16 05:45:45;;;;;;;31.00;8.20;;;;;;;27.02;72.33;100597.72;4966392;28;20506;-82
2023/08/16 05:48:10;;;;;;;26.55;7.60;;;;;;;27.04;72.29;100617.66;4953071;28;20147;-83
2023/08/16 05:50:36;;;;;;;42.30;9.85;;;;;;;27.03;71.93;100610.41;4951332;28;20479;-86
2023/08/16 05:53:02;;;;;;;27.67;7.57;;;;;;;27.14;71.48;100632.81;4964503;28;20031;-84
2023/08/16 05:55:28;;;;;;;20.95;7.75;;;;;;;27.24;71.54;100619.31;4950219;28;20027;-84
2023/08/16 05:57:54;;;;;;;25.83;7.03;;;;;;;27.22;70.75;100585.53;4950456;28;20058;-82
2023/08/16 06:00:19;;;;;;;29.92;8.18;;;;;;;27.26;70.71;100567.41;4950557;28;20045;-80
2023/08/16 06:02:45;;;;;;;30.92;7.18;;;;;;;27.28;69.96;100565.25;4950492;28;20034;-84
2023/08/16 06:05:10;;;;;;;35.72;7.93;;;;;;;27.30;69.77;100560.34;4950894;28;20031;-83
2023/08/16 06:07:36;;;;;;;16.58;5.90;;;;;;;27.33;69.80;100549.69;4953047;28;20027;-79
2023/08/16 06:10:03;;;;;;;45.63;7.28;;;;;;;27.30;69.36;100532.75;4954231;28;20019;-88
2023/08/16 06:12:28;;;;;;;48.60;6.55;;;;;;;27.26;68.92;100531.53;4951254;29;20027;-89
2023/08/16 06:14:54;;;;;;;40.30;7.65;;;;;;;27.27;68.91;100505.59;4951744;28;20055;-85
2023/08/16 06:17:19;;;;;;;21.50;5.85;;;;;;;27.37;67.85;100501.16;4949382;29;20107;-82
2023/08/16 06:19:45;;;;;;;32.00;6.72;;;;;;;27.43;67.89;100494.72;4950597;29;20031;-83
2023/08/16 06:22:10;;;;;;;56.65;8.40;;;;;;;27.42;67.89;100476.47;4950763;28;20047;-82
2023/08/16 06:24:37;;;;;;;36.75;8.60;;;;;;;27.49;67.02;100481.88;4951072;28;20028;-84
2023/08/16 06:27:02;;;;;;;35.88;6.35;;;;;;;27.42;67.02;100459.03;4952406;28;20035;-87
2023/08/16 06:29:28;;;;;;;56.80;8.23;;;;;;;27.61;66.44;100459.78;4954559;28;20027;-80
2023/08/16 06:31:59;;;;;;;62.67;7.28;;;;;;;27.65;66.07;100458.19;4956873;28;20066;-83
2023/08/16 06:34:24;;;;;;;34.72;7.38;;;;;;;27.66;65.96;100469.03;4957286;28;20027;-78
2023/08/16 06:36:50;;;;;;;38.97;7.72;;;;;;;27.77;65.29;100493.06;4953661;28;20031;-84
2023/08/16 06:39:16;;;;;;;75.32;10.48;;;;;;;27.84;64.92;100491.03;4953715;28;20019;-82
2023/08/16 06:41:41;;;;;;;30.83;7.95;;;;;;;27.91;64.45;100477.94;4955058;28;20094;-81
2023/08/16 06:44:07;;;;;;;50.35;8.13;;;;;;;27.94;63.72;100474.69;4954379;28;20047;-85
2023/08/16 06:46:32;;;;;;;22.77;6.40;;;;;;;28.02;62.73;100484.50;4958094;28;20034;-89
2023/08/16 06:48:59;;;;;;;22.42;7.03;;;;;;;28.06;62.43;100486.59;4955017;29;20031;-82
2023/08/16 06:51:25;;;;;;;58.50;9.77;;;;;;;28.18;61.95;100518.91;4952108;29;20416;-92
2023/08/16 06:53:50;;;;;;;33.28;8.43;;;;;;;28.16;61.52;100551.53;4960997;28;20046;-82
2023/08/16 06:56:16;;;;;;;37.65;7.38;;;;;;;28.28;60.93;100577.25;4956836;28;20074;-88
2023/08/16 06:58:41;;;;;;;25.92;6.55;;;;;;;28.34;59.58;100574.34;4955840;29;20596;-83
2023/08/16 07:01:08;;;;;;;38.42;9.65;;;;;;;28.54;58.96;100582.25;4956186;29;20407;-81
2023/08/16 07:03:34;;;;;;;21.38;7.07;;;;;;;28.72;58.44;100598.72;4965258;28;20031;-83
2023/08/16 07:05:59;;;;;;;21.00;6.07;;;;;;;28.91;57.51;100622.41;4964811;28;20027;-85
2023/08/16 07:08:25;;;;;;;25.13;6.05;;;;;;;29.10;57.33;100625.84;4962450;28;20451;-92
2023/08/16 07:10:51;;;;;;;31.60;7.03;;;;;;;29.31;57.50;100618.81;4956302;29;20034;-85
2023/08/16 07:13:16;;;;;;;40.75;11.20;;;;;;;29.51;57.21;100630.28;4959390;28;20114;-84
2023/08/16 07:15:42;;;;;;;26.02;7.22;;;;;;;29.56;56.05;100616.53;4960255;29;20085;-91
2023/08/16 07:18:07;;;;;;;16.52;6.60;;;;;;;29.75;55.39;100620.75;4955900;28;20098;-80
2023/08/16 07:20:32;;;;;;;25.17;5.88;;;;;;;29.94;55.07;100624.13;4955734;28;20061;-87
2023/08/16 07:22:58;;;;;;;25.52;7.50;;;;;;;30.08;54.69;100631.03;4955807;29;20042;-83
2023/08/16 07:25:26;;;;;;;44.92;11.88;;;;;;;30.19;54.35;100630.94;4956689;29;20027;-87
2023/08/16 07:27:52;;;;;;;38.38;7.15;;;;;;;30.34;53.29;100635.03;4955847;28;20038;-88
2023/08/16 07:30:18;;;;;;;30.58;6.38;;;;;;;30.16;53.01;100600.09;4957403;29;20035;-90
2023/08/16 07:32:43;;;;;;;18.42;7.38;;;;;;;30.38;53.04;100617.63;4957907;28;20023;-89
2023/08/16 07:35:09;;;;;;;42.55;7.75;;;;;;;30.48;53.22;100633.63;4957481;28;20027;-87
2023/08/16 07:37:36;;;;;;;29.80;7.53;;;;;;;30.41;52.93;100642.13;4954984;28;20050;-78
2023/08/16 07:40:03;;;;;;;33.65;7.78;;;;;;;30.37;52.81;100628.97;4953092;28;20042;-77
2023/08/16 07:42:28;;;;;;;50.53;10.93;;;;;;;30.15;52.53;100599.25;4955004;28;20474;-89
2023/08/16 07:44:54;;;;;;;35.47;7.07;;;;;;;30.26;53.01;100649.34;4955196;28;20031;-77
2023/08/16 07:47:19;;;;;;;34.55;6.65;;;;;;;30.16;53.48;100650.88;4952989;28;20064;-79
2023/08/16 07:49:45;;;;;;;28.08;6.57;;;;;;;29.99;53.78;100644.50;4952630;28;20085;-78
2023/08/16 07:52:10;;;;;;;38.22;8.15;;;;;;;30.02;53.00;100655.09;4952728;28;20076;-83
2023/08/16 07:54:36;;;;;;;104.53;15.52;;;;;;;30.10;53.00;100657.44;4965506;28;20037;-81
2023/08/16 07:57:01;;;;;;;24.33;6.75;;;;;;;30.00;53.39;100671.13;4972441;28;20058;-83
2023/08/16 07:59:26;;;;;;;24.33;6.80;;;;;;;29.98;53.07;100665.00;4973823;28;20420;-80
2023/08/16 08:01:53;;;;;;;28.05;7.97;;;;;;;29.95;53.11;100664.66;4972951;28;20027;-80
2023/08/16 08:04:19;;;;;;;23.00;6.63;;;;;;;29.95;53.42;100668.28;4971707;28;20045;-80
2023/08/16 08:06:45;;;;;;;21.60;6.75;;;;;;;30.01;53.35;100664.50;4971911;28;20027;-79
2023/08/16 08:09:10;;;;;;;23.75;6.18;;;;;;;30.15;53.34;100665.84;4971463;28;20061;-81
2023/08/16 08:11:37;;;;;;;40.40;6.75;;;;;;;30.45;52.98;100671.09;4970435;28;20027;-81
2023/08/16 08:14:03;;;;;;;19.38;6.13;;;;;;;30.69;52.56;100678.09;4987233;28;20502;-79
2023/08/16 08:16:28;;;;;;;26.10;7.63;;;;;;;30.81;51.91;100668.81;4971819;28;20042;-80
2023/08/16 08:18:54;;;;;;;28.58;6.20;;;;;;;30.80;51.72;100656.84;4972370;28;20033;-81
2023/08/16 08:21:19;;;;;;;22.52;6.07;;;;;;;30.94;51.45;100680.44;4973881;28;20082;-81
2023/08/16 08:23:45;;;;;;;24.80;6.05;;;;;;;30.91;50.40;100677.28;4975701;28;20034;-88
2023/08/16 08:26:10;;;;;;;18.20;5.50;;;;;;;30.74;49.92;100647.63;4969317;28;20039;-81
2023/08/16 08:28:36;;;;;;;14.23;5.68;;;;;;;31.08;49.80;100676.16;4971057;28;20971;-87
2023/08/16 08:31:05;;;;;;;14.05;5.97;;;;;;;31.05;50.08;100679.47;4954143;29;20038;-82
2023/08/16 08:33:31;;;;;;;28.92;7.03;;;;;;;31.06;49.57;100661.69;4953484;28;21137;-85
2023/08/16 08:35:58;;;;;;;21.42;5.75;;;;;;;31.17;49.09;100674.63;4952890;29;20035;-84
2023/08/16 08:38:23;;;;;;;42.35;7.68;;;;;;;31.23;48.95;100681.06;4953760;29;20030;-80
2023/08/16 08:40:59;;;;;;;24.20;7.05;;;;;;;31.33;48.44;100672.03;4951462;29;20031;-79
2023/08/16 08:43:35;;;;;;;24.10;5.82;;;;;;;31.34;47.82;100651.47;4951325;28;20500;-78
2023/08/16 08:46:02;;;;;;;24.25;5.20;;;;;;;31.47;47.08;100670.50;4949890;29;20027;-83
2023/08/16 08:48:28;;;;;;;85.20;8.98;;;;;;;31.56;47.39;100671.78;4951312;29;20159;-79
2023/08/16 08:50:55;;;;;;;34.72;6.05;;;;;;;31.19;47.43;100630.72;4951595;29;20035;-79
2023/08/16 08:53:21;;;;;;;23.83;5.82;;;;;;;31.52;48.18;100667.81;4954777;28;20033;-76
2023/08/16 08:55:49;;;;;;;15.82;5.43;;;;;;;31.57;48.27;100651.19;4970383;28;20033;-76
2023/08/16 08:58:17;;;;;;;18.27;5.10;;;;;;;31.58;47.51;100638.97;4970660;28;20081;-79
2023/08/16 09:00:44;;;;;;;28.38;6.57;;;;;;;31.58;46.88;100658.44;4970136;28;20031;-76
2023/08/16 09:03:10;;;;;;;33.95;6.57;;;;;;;31.43;47.18;100649.91;4969007;28;20035;-78
2023/08/16 09:05:38;;;;;;;26.30;6.05;;;;;;;31.29;47.17;100644.75;4970253;28;20109;-76
2023/08/16 09:08:05;;;;;;;22.25;5.18;;;;;;;31.20;46.77;100628.78;4970169;28;20041;-79
2023/08/16 09:10:36;;;;;;;42.72;6.90;;;;;;;31.36;46.65;100632.56;4970351;28;20169;-76
2023/08/16 09:13:06;;;;;;;29.70;6.33;;;;;;;31.54;46.57;100643.38;4970313;28;20034;-76
2023/08/16 09:15:32;;;;;;;26.27;5.57;;;;;;;31.46;45.87;100636.31;4969687;28;20887;-77
2023/08/16 09:18:12;;;;;;;40.67;5.97;;;;;;;31.56;46.21;100636.44;4970019;28;20041;-78
2023/08/16 09:20:39;;;;;;;19.90;5.80;;;;;;;31.71;46.46;100652.47;4969943;28;20062;-79
2023/08/16 09:23:05;;;;;;;23.67;4.85;;;;;;;31.65;46.43;100634.06;4970031;28;20371;-80
2023/08/16 09:25:31;;;;;;;52.97;8.13;;;;;;;31.72;46.28;100640.22;4969857;28;20123;-82
2023/08/16 09:27:57;;;;;;;19.02;5.20;;;;;;;31.66;47.12;100647.69;4969680;28;20038;-76
2023/08/16 09:30:26;;;;;;;17.55;5.70;;;;;;;31.73;47.21;100655.81;4970128;28;20031;-77
2023/08/16 09:32:52;;;;;;;15.27;5.43;;;;;;;31.58;47.73;100633.41;4969567;28;20610;-77
2023/08/16 09:35:18;;;;;;;24.90;5.38;;;;;;;31.65;46.92;100659.88;4969842;28;20027;-77
2023/08/16 09:37:44;;;;;;;61.95;8.48;;;;;;;31.25;46.80;100643.56;4969834;28;20396;-76
2023/08/16 09:40:15;;;;;;;15.30;5.50;;;;;;;31.31;47.41;100665.88;4969623;28;20058;-75
2023/08/16 09:42:41;;;;;;;10.53;4.67;;;;;;;31.31;48.01;100652.00;4969993;28;20035;-78
2023/08/16 09:45:07;;;;;;;24.50;6.22;;;;;;;31.51;47.56;100652.25;4970124;28;20034;-76
2023/08/16 09:47:32;;;;;;;16.00;4.95;;;;;;;31.57;47.75;100634.50;4969735;28;20034;-78
2023/08/16 09:49:59;;;;;;;21.20;5.40;;;;;;;31.65;47.86;100647.94;4970098;28;20030;-80
2023/08/16 09:52:25;;;;;;;27.63;6.22;;;;;;;31.70;48.41;100645.22;4970699;28;20475;-79
2023/08/16 09:54:55;;;;;;;14.15;5.38;;;;;;;31.71;48.40;100641.34;4955800;28;20138;-86
2023/08/16 09:57:21;;;;;;;22.88;5.78;;;;;;;31.70;48.14;100642.44;4952290;28;20070;-79
2023/08/16 09:59:47;;;;;;;22.30;6.63;;;;;;;31.91;47.81;100669.34;4952464;28;20031;-78
2023/08/16 10:02:13;;;;;;;21.67;6.50;;;;;;;31.95;47.88;100676.06;4951678;28;20035;-78
2023/08/16 10:04:40;;;;;;;35.25;7.93;;;;;;;32.12;47.29;100665.66;4965776;28;20104;-78
2023/08/16 10:07:06;;;;;;;14.48;5.25;;;;;;;32.21;47.47;100682.72;4951394;28;20027;-84
2023/08/16 10:09:33;;;;;;;31.13;6.00;;;;;;;32.08;47.92;100670.06;4952559;28;20035;-82
2023/08/16 10:12:04;;;;;;;17.23;4.53;;;;;;;32.07;47.15;100685.13;4952809;28;20177;-82
2023/08/16 10:14:30;;;;;;;13.13;5.25;;;;;;;32.01;47.23;100688.06;4955251;28;20063;-86
2023/08/16 10:17:02;;;;;;;16.17;6.18;;;;;;;32.01;47.42;100680.56;4954456;28;20031;-80
2023/08/16 10:19:32;;;;;;;20.23;6.90;;;;;;;32.03;47.65;100671.97;4954542;28;20046;-82
2023/08/16 10:21:59;;;;;;;18.73;6.05;;;;;;;32.25;47.61;100698.63;4956032;28;20058;-87
2023/08/16 10:24:29;;;;;;;18.73;5.40;;;;;;;32.14;48.10;100696.84;4970998;28;20081;-81
2023/08/16 10:26:57;;;;;;;22.48;5.25;;;;;;;32.19;47.66;100687.72;4955803;28;20027;-90
2023/08/16 10:29:23;;;;;;;21.70;4.88;;;;;;;32.21;47.26;100675.19;4957069;28;20046;-83
2023/08/16 10:31:51;;;;;;;17.23;4.95;;;;;;;32.17;47.03;100676.81;4955583;28;20035;-87
2023/08/16 10:34:20;;;;;;;20.92;5.80;;;;;;;32.20;47.88;100684.66;4955182;28;20027;-86
2023/08/16 10:36:46;;;;;;;15.57;5.10;;;;;;;32.21;47.36;100686.34;4971417;28;20027;-88
2023/08/16 10:39:22;;;;;;;17.48;6.75;;;;;;;32.00;47.96;100659.41;4954096;28;20023;-83
2023/08/16 10:41:51;;;;;;;19.63;5.63;;;;;;;32.14;47.96;100679.34;4955160;28;20031;-83
2023/08/16 10:44:23;;;;;;;24.95;5.43;;;;;;;32.18;48.48;100695.22;4954997;28;20376;-83
2023/08/16 10:46:49;;;;;;;15.10;5.35;;;;;;;32.39;47.43;100698.16;4954716;28;20112;-90
2023/08/16 10:49:14;;;;;;;23.35;6.07;;;;;;;32.32;47.67;100676.94;4954786;28;20122;-82
2023/08/16 10:51:45;;;;;;;21.88;5.03;;;;;;;32.58;46.97;100685.53;4956152;28;20031;-83
2023/08/16 10:54:11;;;;;;;24.33;5.72;;;;;;;32.52;46.77;100681.00;4954089;28;20024;-88
2023/08/16 10:56:43;;;;;;;19.08;5.97;;;;;;;32.39;47.20;100678.66;4955617;28;20504;-84
2023/08/16 10:59:10;;;;;;;48.83;6.32;;;;;;;32.13;47.66;100645.09;4955774;28;20415;-89
2023/08/16 11:01:43;;;;;;;12.07;5.57;;;;;;;32.31;48.08;100675.28;4956493;28;20027;-92
2023/08/16 11:04:09;;;;;;;13.93;5.95;;;;;;;32.22;48.43;100682.47;4955392;28;20031;-91
2023/08/16 11:06:39;;;;;;;23.05;8.57;;;;;;;32.10;47.58;100679.00;4956095;28;20494;-89
2023/08/16 11:09:05;;;;;;;22.05;5.68;;;;;;;32.27;47.73;100679.69;4955976;28;20031;-90
2023/08/16 11:11:30;;;;;;;25.60;6.05;;;;;;;32.20;46.64;100679.06;4969982;28;20031;-88
2023/08/16 11:13:59;;;;;;;27.13;5.95;;;;;;;32.06;46.39;100661.16;4954591;28;20094;-87